Time;durP1;ratioP1;P1;durP2;ratioP2;P2;SDS_P1;SDS_P2;PMS_P1;PMS_P2;Temp;Humidity;BMP_temperature;BMP_pressure;BME280_temperature;BME280_humidity;BME280_pressure;Samples;Min_cycle;Max_cycle;Signal;HPM_P1;HPM_P2
2021/09/29 00:00:53;;;;;;;14.40;6.90;;;12.40;99.90;;;;;;5055560;28;20053;-71
2021/09/29 00:03:21;;;;;;;11.38;6.57;;;12.30;99.90;;;;;;5054147;28;20044;-69
2021/09/29 00:05:48;;;;;;;11.73;6.75;;;12.30;99.90;;;;;;5057581;28;20052;-71
2021/09/29 00:08:15;;;;;;;11.63;6.85;;;12.20;99.90;;;;;;5054681;28;20512;-69
2021/09/29 00:10:44;;;;;;;11.65;6.88;;;12.20;99.90;;;;;;5055420;28;20056;-69
2021/09/29 00:13:11;;;;;;;17.40;7.20;;;12.20;99.90;;;;;;5054091;28;20440;-70
2021/09/29 00:15:39;;;;;;;10.05;6.68;;;12.20;99.90;;;;;;5055202;28;20379;-69
2021/09/29 00:18:06;;;;;;;14.85;7.07;;;12.20;99.90;;;;;;5057090;28;20048;-69
2021/09/29 00:20:34;;;;;;;12.52;7.55;;;12.10;99.90;;;;;;5056130;28;20051;-71
2021/09/29 00:23:01;;;;;;;12.02;7.20;;;12.10;99.90;;;;;;5054597;28;20425;-70
2021/09/29 00:25:28;;;;;;;12.52;6.95;;;12.10;99.90;;;;;;5055156;28;20056;-69
2021/09/29 00:27:57;;;;;;;11.50;7.63;;;12.20;99.90;;;;;;5062055;28;20055;-68
2021/09/29 00:30:24;;;;;;;10.63;6.95;;;12.20;99.90;;;;;;5059495;28;20048;-68
2021/09/29 00:32:51;;;;;;;11.13;6.65;;;12.20;99.90;;;;;;5060810;28;20121;-69
2021/09/29 00:35:18;;;;;;;12.13;7.43;;;12.20;99.90;;;;;;5057212;28;20127;-70
2021/09/29 00:37:45;;;;;;;13.10;7.32;;;12.40;99.90;;;;;;5060598;28;20056;-69
2021/09/29 00:40:13;;;;;;;12.40;7.30;;;12.30;99.90;;;;;;5059237;28;20044;-68
2021/09/29 00:42:40;;;;;;;11.43;6.47;;;12.40;99.90;;;;;;5057266;28;20052;-69
2021/09/29 00:45:10;;;;;;;11.85;7.05;;;12.40;99.90;;;;;;5058688;28;20052;-69
2021/09/29 00:47:37;;;;;;;11.38;7.70;;;12.40;99.90;;;;;;5059535;28;20405;-70
2021/09/29 00:50:05;;;;;;;14.32;7.45;;;12.40;99.90;;;;;;5061162;28;20062;-69
2021/09/29 00:52:33;;;;;;;11.80;6.88;;;12.40;99.90;;;;;;5058992;28;20136;-69
2021/09/29 00:55:01;;;;;;;11.48;7.07;;;12.30;99.90;;;;;;5057839;28;20045;-68
2021/09/29 00:57:28;;;;;;;10.35;6.55;;;12.30;99.90;;;;;;5061184;28;20197;-71
2021/09/29 00:59:55;;;;;;;15.85;7.80;;;12.30;99.90;;;;;;5058149;28;20052;-69
2021/09/29 01:02:24;;;;;;;11.35;7.50;;;12.20;99.90;;;;;;5060669;28;20082;-71
2021/09/29 01:04:51;;;;;;;12.18;7.50;;;12.20;99.90;;;;;;5058862;28;20629;-69
2021/09/29 01:07:25;;;;;;;13.85;7.40;;;12.20;99.90;;;;;;5060273;28;20415;-69
2021/09/29 01:10:01;;;;;;;10.75;7.15;;;12.20;99.90;;;;;;5061075;28;20055;-69
2021/09/29 01:12:35;;;;;;;13.20;7.97;;;12.20;99.90;;;;;;5056528;28;20056;-69
2021/09/29 01:15:07;;;;;;;15.60;7.97;;;12.20;99.90;;;;;;5059309;28;20072;-71
2021/09/29 01:17:40;;;;;;;14.63;7.90;;;12.10;99.90;;;;;;5059019;28;20137;-68
2021/09/29 01:20:12;;;;;;;13.77;7.85;;;12.10;99.90;;;;;;5057844;28;20063;-71
2021/09/29 01:23:06;;;;;;;11.40;7.07;;;12.20;99.90;;;;;;5059833;28;20082;-69
2021/09/29 01:25:40;;;;;;;13.60;7.95;;;12.20;99.90;;;;;;5054370;28;20053;-69
2021/09/29 01:28:09;;;;;;;13.25;7.80;;;12.30;99.90;;;;;;5058810;28;20040;-69
2021/09/29 01:30:38;;;;;;;14.85;7.85;;;12.30;99.90;;;;;;5055977;28;20064;-71
2021/09/29 01:33:07;;;;;;;13.88;7.75;;;12.30;99.90;;;;;;5060084;28;20056;-69
2021/09/29 01:35:34;;;;;;;13.07;7.63;;;12.30;99.90;;;;;;5056775;28;20089;-70
2021/09/29 01:38:01;;;;;;;12.48;8.00;;;12.20;99.90;;;;;;5058020;28;20048;-69
2021/09/29 01:40:29;;;;;;;12.70;8.00;;;12.30;99.90;;;;;;5057658;28;20044;-69
2021/09/29 01:42:56;;;;;;;12.40;8.25;;;12.30;99.90;;;;;;5059157;28;20122;-69
2021/09/29 01:45:24;;;;;;;16.58;8.77;;;12.20;99.90;;;;;;5059612;28;20055;-72
2021/09/29 01:47:52;;;;;;;14.25;8.32;;;12.20;99.90;;;;;;5057163;28;20048;-72
2021/09/29 01:50:24;;;;;;;13.35;8.25;;;12.10;99.90;;;;;;5057213;28;20052;-70
2021/09/29 01:52:53;;;;;;;16.05;8.68;;;12.00;99.90;;;;;;5057405;28;20149;-70
2021/09/29 01:55:20;;;;;;;13.27;8.27;;;12.00;99.90;;;;;;5058126;28;20047;-69
2021/09/29 01:57:48;;;;;;;14.70;9.20;;;12.00;99.90;;;;;;5058822;28;20054;-70
2021/09/29 02:00:17;;;;;;;15.82;8.93;;;12.00;99.90;;;;;;5059646;28;20056;-71
2021/09/29 02:02:47;;;;;;;15.55;9.23;;;12.10;99.90;;;;;;5057745;28;20455;-71
2021/09/29 02:05:14;;;;;;;14.27;9.60;;;12.10;99.90;;;;;;5056753;28;20143;-70
2021/09/29 02:07:43;;;;;;;16.20;9.25;;;12.10;99.90;;;;;;5058370;28;20045;-70
2021/09/29 02:10:11;;;;;;;15.40;9.00;;;12.10;99.90;;;;;;5055061;28;20137;-71
2021/09/29 02:12:38;;;;;;;15.73;9.25;;;12.10;99.90;;;;;;5057719;28;20052;-70
2021/09/29 02:15:07;;;;;;;14.10;8.75;;;12.20;99.90;;;;;;5056534;28;20049;-70
2021/09/29 02:17:34;;;;;;;18.38;8.82;;;12.20;99.90;;;;;;5057719;28;20043;-71
2021/09/29 02:20:02;;;;;;;16.83;8.90;;;12.20;99.90;;;;;;5059281;28;20460;-70
2021/09/29 02:22:30;;;;;;;13.48;8.18;;;12.40;99.90;;;;;;5058261;28;20127;-70
2021/09/29 02:24:57;;;;;;;14.57;8.35;;;12.30;99.90;;;;;;5058326;28;20101;-70
2021/09/29 02:27:24;;;;;;;13.25;8.23;;;12.40;99.90;;;;;;5057842;28;20067;-70
2021/09/29 02:29:51;;;;;;;14.07;8.40;;;12.50;99.90;;;;;;5058194;28;20428;-71
2021/09/29 02:32:18;;;;;;;14.25;8.05;;;12.50;99.90;;;;;;5056124;28;20048;-72
2021/09/29 02:34:46;;;;;;;12.30;7.60;;;12.50;99.90;;;;;;5057708;28;20047;-70
2021/09/29 02:37:15;;;;;;;15.57;8.32;;;12.50;99.90;;;;;;5057047;28;20071;-70
2021/09/29 02:39:42;;;;;;;17.38;8.40;;;12.50;99.90;;;;;;5059557;28;20430;-70
2021/09/29 02:42:09;;;;;;;13.57;7.90;;;12.40;99.90;;;;;;5057136;28;20351;-72
2021/09/29 02:44:36;;;;;;;12.88;7.63;;;12.50;99.90;;;;;;5058304;28;20056;-72
2021/09/29 02:47:04;;;;;;;14.70;8.82;;;12.50;99.90;;;;;;5055798;28;20501;-70
2021/09/29 02:49:31;;;;;;;12.88;8.45;;;12.50;99.90;;;;;;5055595;28;20048;-69
2021/09/29 02:51:58;;;;;;;14.85;8.70;;;12.50;99.90;;;;;;5057039;28;20478;-70
2021/09/29 02:54:27;;;;;;;17.50;8.60;;;12.50;99.90;;;;;;5056833;28;20492;-70
2021/09/29 02:56:54;;;;;;;13.80;7.97;;;12.50;99.90;;;;;;5057750;28;20052;-69
2021/09/29 02:59:21;;;;;;;16.90;8.98;;;12.50;99.90;;;;;;5057225;28;20505;-70
2021/09/29 03:01:48;;;;;;;14.32;8.38;;;12.50;99.90;;;;;;5059725;28;20390;-71
2021/09/29 03:04:16;;;;;;;14.05;8.45;;;12.40;99.90;;;;;;5055793;28;21397;-69
2021/09/29 03:06:43;;;;;;;14.93;8.63;;;12.50;99.90;;;;;;5055194;28;20195;-69
2021/09/29 03:09:10;;;;;;;12.98;7.95;;;12.40;99.90;;;;;;5055103;28;20052;-69
2021/09/29 03:11:38;;;;;;;13.70;8.60;;;12.40;99.90;;;;;;5059488;28;20043;-72
2021/09/29 03:14:06;;;;;;;13.52;8.35;;;12.50;99.90;;;;;;5056396;28;20047;-71
2021/09/29 03:16:33;;;;;;;13.90;8.20;;;12.50;99.90;;;;;;5056234;28;20053;-70
2021/09/29 03:19:01;;;;;;;15.32;8.43;;;12.50;99.90;;;;;;5056416;28;20060;-70
2021/09/29 03:21:28;;;;;;;13.20;8.63;;;12.40;99.90;;;;;;5054471;28;20052;-70
2021/09/29 03:23:55;;;;;;;17.13;8.70;;;12.30;99.90;;;;;;5054843;28;20060;-70
2021/09/29 03:26:25;;;;;;;14.75;8.45;;;12.30;99.90;;;;;;5056052;28;20089;-73
2021/09/29 03:28:54;;;;;;;15.30;8.43;;;12.40;99.90;;;;;;5056866;28;20152;-73
2021/09/29 03:31:21;;;;;;;15.30;8.40;;;12.20;99.90;;;;;;5058303;28;20048;-74
2021/09/29 03:33:48;;;;;;;17.35;9.13;;;12.10;99.90;;;;;;5059553;28;20058;-72
2021/09/29 03:36:15;;;;;;;15.68;9.15;;;12.10;99.90;;;;;;5052936;28;20045;-74
2021/09/29 03:38:43;;;;;;;15.20;9.38;;;12.10;99.90;;;;;;5055020;28;20515;-72
2021/09/29 03:41:10;;;;;;;16.20;8.90;;;12.10;99.90;;;;;;5056084;28;20048;-74
2021/09/29 03:43:37;;;;;;;14.48;9.10;;;12.00;99.90;;;;;;5055559;28;20044;-72
2021/09/29 03:46:05;;;;;;;16.98;8.32;;;12.00;99.90;;;;;;5054695;28;20058;-72
2021/09/29 03:48:32;;;;;;;15.02;8.05;;;12.00;99.90;;;;;;5056769;28;20493;-72
2021/09/29 03:51:00;;;;;;;18.13;8.68;;;12.00;99.90;;;;;;5055870;28;20048;-72
2021/09/29 03:53:27;;;;;;;16.92;9.05;;;12.00;99.90;;;;;;5055963;28;20052;-72
2021/09/29 03:55:54;;;;;;;18.98;9.18;;;12.00;99.90;;;;;;5057493;28;20572;-73
2021/09/29 03:58:21;;;;;;;17.20;9.27;;;12.10;99.90;;;;;;5056693;28;20122;-72
2021/09/29 04:00:48;;;;;;;15.95;9.02;;;12.10;99.90;;;;;;5061287;28;20049;-72
2021/09/29 04:03:17;;;;;;;15.27;8.65;;;12.00;99.90;;;;;;5061005;28;20056;-72
2021/09/29 04:05:44;;;;;;;16.45;8.70;;;12.10;99.90;;;;;;5059704;28;20044;-73
2021/09/29 04:08:11;;;;;;;18.50;9.20;;;12.00;99.90;;;;;;5061184;28;20417;-74
2021/09/29 04:10:38;;;;;;;13.90;8.60;;;12.00;99.90;;;;;;5058663;28;20056;-73
2021/09/29 04:13:06;;;;;;;14.00;8.88;;;12.00;99.90;;;;;;5060691;28;20053;-73
2021/09/29 04:15:34;;;;;;;12.82;8.13;;;12.00;99.90;;;;;;5061056;28;20056;-72
2021/09/29 04:18:01;;;;;;;15.40;8.50;;;12.00;99.90;;;;;;5062274;28;20040;-73
2021/09/29 04:20:29;;;;;;;13.38;8.15;;;12.00;99.90;;;;;;5060243;28;20052;-74
2021/09/29 04:22:57;;;;;;;16.67;8.23;;;12.00;99.90;;;;;;5060059;28;20056;-73
2021/09/29 04:25:24;;;;;;;17.13;8.50;;;12.00;99.90;;;;;;5057700;28;20052;-72
2021/09/29 04:27:51;;;;;;;13.82;8.57;;;12.00;99.90;;;;;;5061283;28;20051;-72
2021/09/29 04:30:18;;;;;;;15.48;9.30;;;12.00;99.90;;;;;;5059447;28;20448;-72
2021/09/29 04:32:46;;;;;;;14.52;8.95;;;12.00;99.90;;;;;;5059625;28;20063;-72
2021/09/29 04:35:13;;;;;;;13.98;9.07;;;12.00;99.90;;;;;;5060368;28;20081;-73
2021/09/29 04:37:42;;;;;;;15.10;8.50;;;12.00;99.90;;;;;;5062966;28;20056;-72
2021/09/29 04:40:10;;;;;;;14.57;8.82;;;12.10;99.90;;;;;;5058875;28;20097;-72
2021/09/29 04:42:37;;;;;;;15.02;8.90;;;12.00;99.90;;;;;;5062383;28;20081;-72
2021/09/29 04:45:05;;;;;;;15.73;9.38;;;12.00;99.90;;;;;;5059604;28;20057;-72
2021/09/29 04:47:33;;;;;;;13.65;8.43;;;12.00;99.90;;;;;;5058261;28;20051;-72
2021/09/29 04:50:00;;;;;;;12.80;8.63;;;12.00;99.90;;;;;;5057283;28;20527;-73
2021/09/29 04:52:28;;;;;;;14.50;8.75;;;11.90;99.90;;;;;;5061923;28;20048;-74
2021/09/29 04:54:56;;;;;;;13.85;8.32;;;11.80;99.90;;;;;;5057561;28;20063;-72
2021/09/29 04:57:23;;;;;;;12.63;8.02;;;11.80;99.90;;;;;;5060715;28;20044;-72
2021/09/29 04:59:50;;;;;;;13.20;8.07;;;11.90;99.90;;;;;;5062869;28;20496;-72
2021/09/29 05:02:19;;;;;;;13.35;8.30;;;11.90;99.90;;;;;;5059281;28;20052;-73
2021/09/29 05:04:46;;;;;;;12.38;7.82;;;12.00;99.90;;;;;;5059286;28;20052;-73
2021/09/29 05:07:20;;;;;;;15.82;8.93;;;11.80;99.90;;;;;;5060410;28;20057;-71
2021/09/29 05:09:50;;;;;;;15.80;8.63;;;11.80;99.90;;;;;;5058812;28;20048;-72
2021/09/29 05:12:26;;;;;;;16.27;8.57;;;11.90;99.90;;;;;;5057865;28;20082;-73
2021/09/29 05:14:53;;;;;;;14.40;9.10;;;11.90;99.90;;;;;;5059881;28;20048;-71
2021/09/29 05:17:20;;;;;;;15.70;8.50;;;12.00;99.90;;;;;;5059740;28;20064;-73
2021/09/29 05:19:48;;;;;;;16.92;8.82;;;11.90;99.90;;;;;;5061040;28;20071;-71
2021/09/29 05:22:15;;;;;;;12.10;7.97;;;11.90;99.90;;;;;;5059819;28;20519;-72
2021/09/29 05:24:42;;;;;;;15.73;8.20;;;11.90;99.90;;;;;;5056989;28;20113;-71
2021/09/29 05:27:09;;;;;;;13.48;8.85;;;11.90;99.90;;;;;;5060005;28;20052;-73
2021/09/29 05:29:40;;;;;;;13.55;8.18;;;12.00;99.90;;;;;;5059182;28;20448;-72
2021/09/29 05:32:08;;;;;;;13.73;9.07;;;11.90;99.90;;;;;;5061052;28;20048;-72
2021/09/29 05:34:35;;;;;;;16.23;8.57;;;11.90;99.90;;;;;;5057832;28;20155;-74
2021/09/29 05:37:04;;;;;;;14.00;8.48;;;12.00;99.90;;;;;;5056420;28;20539;-73
2021/09/29 05:39:31;;;;;;;14.55;8.77;;;12.00;99.90;;;;;;5058442;28;20162;-74
2021/09/29 05:41:59;;;;;;;15.32;9.18;;;12.00;99.90;;;;;;5060484;28;20051;-72
2021/09/29 05:44:26;;;;;;;15.85;9.13;;;12.00;99.90;;;;;;5058872;28;20157;-74
2021/09/29 05:46:55;;;;;;;16.90;8.90;;;12.00;99.90;;;;;;5056949;28;20134;-72
2021/09/29 05:49:22;;;;;;;11.80;8.00;;;11.90;99.90;;;;;;5056754;28;20052;-74
2021/09/29 05:51:49;;;;;;;15.38;8.90;;;12.00;99.90;;;;;;5059664;28;20052;-72
2021/09/29 05:54:17;;;;;;;13.57;7.97;;;12.00;99.90;;;;;;5061145;28;20528;-73
2021/09/29 05:56:44;;;;;;;14.90;8.80;;;12.00;99.90;;;;;;5059897;28;20048;-72
2021/09/29 05:59:11;;;;;;;14.07;8.73;;;12.10;99.90;;;;;;5058392;28;20063;-74
2021/09/29 06:01:39;;;;;;;11.52;7.50;;;12.10;99.90;;;;;;5059689;28;20044;-72
2021/09/29 06:04:09;;;;;;;13.35;8.25;;;12.10;99.90;;;;;;5060338;28;20661;-73
2021/09/29 06:06:36;;;;;;;15.30;8.73;;;12.10;99.90;;;;;;5058598;28;20142;-72
2021/09/29 06:09:03;;;;;;;21.98;9.00;;;12.20;99.90;;;;;;5056138;28;20504;-72
2021/09/29 06:11:30;;;;;;;14.25;9.32;;;12.30;99.90;;;;;;5055575;28;20668;-73
2021/09/29 06:14:01;;;;;;;16.73;9.50;;;12.30;99.90;;;;;;5058078;28;20048;-71
2021/09/29 06:16:29;;;;;;;13.98;8.75;;;12.30;99.90;;;;;;5058162;28;20060;-73
2021/09/29 06:18:56;;;;;;;17.42;9.43;;;12.30;99.90;;;;;;5058938;28;20078;-74
2021/09/29 06:21:25;;;;;;;14.50;8.60;;;12.30;99.90;;;;;;5058314;28;20120;-74
2021/09/29 06:23:52;;;;;;;13.68;9.32;;;12.30;99.90;;;;;;5058595;28;20056;-74
2021/09/29 06:26:20;;;;;;;15.48;9.63;;;12.30;99.90;;;;;;5054059;28;20052;-72
2021/09/29 06:28:47;;;;;;;16.40;10.05;;;12.30;99.90;;;;;;5058027;28;20484;-73
2021/09/29 06:31:14;;;;;;;16.35;9.10;;;12.30;99.90;;;;;;5058842;28;20079;-72
2021/09/29 06:33:41;;;;;;;17.88;10.45;;;12.30;99.90;;;;;;5058225;28;20425;-72
2021/09/29 06:36:08;;;;;;;16.95;9.23;;;12.40;99.90;;;;;;5057151;28;20071;-71
2021/09/29 06:38:37;;;;;;;16.70;10.00;;;12.40;99.90;;;;;;5059899;28;20134;-73
2021/09/29 06:41:04;;;;;;;16.45;10.15;;;12.50;99.90;;;;;;5056824;28;20497;-72
2021/09/29 06:43:31;;;;;;;15.90;9.63;;;12.60;99.90;;;;;;5059871;28;20045;-72
2021/09/29 06:45:58;;;;;;;16.23;9.98;;;12.50;99.90;;;;;;5055811;28;20062;-72
2021/09/29 06:48:26;;;;;;;17.83;10.80;;;12.60;99.90;;;;;;5060259;28;20358;-74
2021/09/29 06:50:53;;;;;;;16.98;9.45;;;12.60;99.90;;;;;;5057239;28;20051;-72
2021/09/29 06:53:21;;;;;;;13.40;8.98;;;12.60;99.90;;;;;;5059682;28;20055;-72
2021/09/29 06:55:50;;;;;;;16.17;9.40;;;12.70;99.90;;;;;;5058607;28;20036;-72
2021/09/29 06:58:20;;;;;;;14.25;9.18;;;12.70;99.90;;;;;;5060028;28;20482;-72
2021/09/29 07:00:47;;;;;;;15.15;9.27;;;12.70;99.90;;;;;;5059681;28;20052;-72
2021/09/29 07:03:15;;;;;;;15.95;9.18;;;12.80;99.90;;;;;;5057486;28;20056;-72
2021/09/29 07:05:42;;;;;;;14.27;8.77;;;12.80;99.90;;;;;;5055362;28;20473;-72
2021/09/29 07:08:09;;;;;;;14.60;9.20;;;12.90;99.90;;;;;;5055606;28;20608;-73
2021/09/29 07:10:36;;;;;;;17.17;9.90;;;12.90;99.90;;;;;;5057052;28;20052;-72
2021/09/29 07:13:05;;;;;;;16.80;9.70;;;12.90;99.90;;;;;;5057323;28;20056;-72
2021/09/29 07:15:32;;;;;;;14.07;9.00;;;13.10;99.90;;;;;;5055996;28;20071;-72
2021/09/29 07:18:00;;;;;;;15.00;8.95;;;13.10;99.90;;;;;;5058964;28;20080;-72
2021/09/29 07:20:28;;;;;;;15.00;9.00;;;13.00;99.90;;;;;;5057711;28;20131;-72
2021/09/29 07:22:57;;;;;;;16.25;9.35;;;13.10;99.90;;;;;;5058810;28;20052;-72
2021/09/29 07:25:28;;;;;;;13.63;8.02;;;13.30;99.90;;;;;;5057492;28;20140;-72
2021/09/29 07:27:55;;;;;;;14.23;8.30;;;13.30;99.90;;;;;;5060093;28;20789;-71
2021/09/29 07:30:24;;;;;;;12.75;8.30;;;13.20;99.90;;;;;;5055627;28;20142;-72
2021/09/29 07:32:51;;;;;;;14.95;7.82;;;13.50;99.90;;;;;;5057357;28;20440;-72
2021/09/29 07:35:19;;;;;;;15.60;7.35;;;13.60;99.90;;;;;;5054396;28;20063;-71
2021/09/29 07:37:47;;;;;;;14.20;7.50;;;13.80;99.90;;;;;;5058172;28;20048;-72
2021/09/29 07:40:15;;;;;;;16.17;7.40;;;13.90;99.90;;;;;;5055438;28;20049;-72
2021/09/29 07:42:42;;;;;;;12.25;6.82;;;13.80;99.90;;;;;;5056323;28;20533;-74
2021/09/29 07:45:10;;;;;;;11.55;6.22;;;13.70;99.90;;;;;;5056996;28;21362;-72
2021/09/29 07:47:39;;;;;;;12.63;6.47;;;13.90;99.90;;;;;;5056580;28;20047;-73
2021/09/29 07:50:08;;;;;;;11.55;5.80;;;13.80;99.90;;;;;;5057222;28;20066;-72
2021/09/29 07:52:36;;;;;;;9.52;5.78;;;13.90;99.90;;;;;;5058859;28;20048;-71
2021/09/29 07:55:03;;;;;;;14.75;5.88;;;14.10;99.90;;;;;;5056922;28;20048;-73
2021/09/29 07:57:31;;;;;;;15.38;5.90;;;14.10;99.90;;;;;;5057076;28;20056;-72
2021/09/29 07:59:59;;;;;;;11.40;5.15;;;14.00;99.90;;;;;;5057004;28;20421;-72
2021/09/29 08:02:26;;;;;;;11.60;5.10;;;13.90;99.90;;;;;;5057349;28;20052;-73
2021/09/29 08:04:58;;;;;;;11.10;5.43;;;14.10;99.90;;;;;;5055221;28;20056;-72
2021/09/29 08:07:25;;;;;;;13.80;5.55;;;15.30;99.90;;;;;;5054634;28;20057;-74
2021/09/29 08:09:53;;;;;;;11.77;5.47;;;16.80;99.90;;;;;;5056211;28;20044;-72
2021/09/29 08:12:20;;;;;;;11.50;5.07;;;17.90;99.90;;;;;;5057251;28;20055;-71
2021/09/29 08:14:47;;;;;;;9.75;4.68;;;17.60;99.90;;;;;;5056415;28;20055;-73
2021/09/29 08:17:14;;;;;;;8.60;4.40;;;18.30;99.90;;;;;;5057236;28;20105;-72
2021/09/29 08:19:41;;;;;;;9.40;3.78;;;18.00;99.90;;;;;;5056931;28;20056;-73
2021/09/29 08:22:11;;;;;;;8.57;3.72;;;18.10;99.90;;;;;;5053517;28;20052;-74
2021/09/29 08:24:44;;;;;;;8.07;3.70;;;18.80;99.90;;;;;;5055013;28;20048;-72
2021/09/29 08:27:16;;;;;;;10.35;3.47;;;19.10;99.90;;;;;;5057200;28;20672;-73
2021/09/29 08:29:53;;;;;;;9.98;3.47;;;20.20;99.90;;;;;;5054063;28;20044;-74
2021/09/29 08:32:25;;;;;;;7.57;2.88;;;20.00;99.90;;;;;;5055674;28;20122;-72
2021/09/29 08:34:57;;;;;;;7.47;3.10;;;19.20;99.90;;;;;;5055583;28;20577;-73
2021/09/29 08:37:34;;;;;;;6.47;2.60;;;19.80;99.90;;;;;;5055773;28;20402;-74
2021/09/29 08:40:13;;;;;;;6.78;3.17;;;19.60;99.90;;;;;;5058640;28;20080;-72
2021/09/29 08:42:47;;;;;;;13.93;3.53;;;20.20;99.90;;;;;;5060578;28;20499;-73
2021/09/29 08:45:22;;;;;;;7.63;3.00;;;19.80;99.90;;;;;;5056165;28;20048;-73
2021/09/29 08:47:54;;;;;;;5.72;2.47;;;19.20;99.90;;;;;;5059119;28;20047;-73
2021/09/29 08:50:29;;;;;;;5.93;2.58;;;18.50;99.90;;;;;;5060680;28;20041;-72
2021/09/29 09:15:46;;;;;;;9.10;2.08;;;21.10;99.90;;;;;;5105613;28;20058;-74
2021/09/29 09:18:15;;;;;;;6.35;1.80;;;21.00;99.90;;;;;;5105938;27;20051;-73
2021/09/29 09:20:46;;;;;;;4.25;1.90;;;21.60;99.90;;;;;;5106957;27;20062;-74
2021/09/29 09:23:13;;;;;;;6.55;2.20;;;21.20;99.90;;;;;;5105468;28;20059;-73
2021/09/29 09:25:41;;;;;;;4.00;1.33;;;20.60;99.90;;;;;;5106168;27;20134;-71
2021/09/29 09:28:10;;;;;;;4.05;1.25;;;21.90;99.90;;;;;;5105334;28;20063;-71
2021/09/29 09:30:42;;;;;;;8.73;1.80;;;23.00;99.90;;;;;;5105404;28;20061;-72
2021/09/29 09:33:09;;;;;;;4.20;1.80;;;24.30;99.90;;;;;;5103682;28;20047;-71
2021/09/29 09:35:48;;;;;;;5.35;1.75;;;22.40;99.90;;;;;;5105451;28;20047;-71
2021/09/29 09:38:19;;;;;;;3.90;1.63;;;21.40;99.90;;;;;;5102766;28;21078;-70
2021/09/29 09:40:46;;;;;;;4.95;1.80;;;20.60;99.90;;;;;;5103683;28;20059;-73
2021/09/29 09:43:14;;;;;;;4.55;1.67;;;21.50;99.90;;;;;;5103782;28;20434;-70
2021/09/29 09:45:46;;;;;;;4.75;1.80;;;20.90;99.90;;;;;;5102979;27;20059;-71
2021/09/29 09:48:23;;;;;;;7.90;2.10;;;22.00;99.90;;;;;;5103744;28;20047;-71
2021/09/29 09:50:55;;;;;;;4.28;1.30;;;21.40;99.90;;;;;;5104170;27;20686;-71
2021/09/29 09:53:22;;;;;;;5.43;1.90;;;22.40;99.90;;;;;;5103918;28;20051;-70
2021/09/29 09:55:51;;;;;;;4.72;1.77;;;23.00;99.90;;;;;;5102962;28;20047;-73
2021/09/29 09:58:18;;;;;;;5.00;1.70;;;22.90;99.90;;;;;;5101385;28;20142;-71
2021/09/29 10:00:47;;;;;;;5.07;1.80;;;24.30;99.90;;;;;;5104028;27;20057;-73
2021/09/29 10:03:16;;;;;;;4.65;1.42;;;24.80;99.90;;;;;;5103024;28;20047;-73
2021/09/29 10:05:48;;;;;;;6.90;1.42;;;25.40;99.90;;;;;;5103767;28;20992;-73
2021/09/29 10:08:16;;;;;;;4.15;1.50;;;23.60;99.90;;;;;;5099937;28;20138;-71
2021/09/29 10:10:56;;;;;;;5.55;1.98;;;22.70;99.90;;;;;;5089844;28;20060;-71
2021/09/29 10:13:40;;;;;;;5.82;1.58;;;22.40;99.90;;;;;;5089235;28;20063;-72
2021/09/29 10:27:20;;;;;;;3.67;1.20;;;24.20;99.90;;;;;;5089233;28;20403;-71
2021/09/29 10:29:51;;;;;;;4.88;1.30;;;23.70;99.90;;;;;;5089480;28;20055;-71
2021/09/29 10:32:23;;;;;;;8.20;1.52;;;22.30;99.90;;;;;;5089170;28;20059;-70
2021/09/29 10:35:05;;;;;;;4.03;1.30;;;21.30;99.90;;;;;;5087922;28;20138;-72
2021/09/29 10:37:58;;;;;;;9.98;1.85;;;21.10;99.90;;;;;;5086965;28;20062;-72
2021/09/29 10:40:38;;;;;;;5.75;1.35;;;22.20;99.90;;;;;;5088430;28;20078;-72
2021/09/29 10:43:06;;;;;;;8.63;1.40;;;24.50;99.90;;;;;;5088465;28;20129;-71
2021/09/29 10:45:42;;;;;;;3.70;1.48;;;25.60;99.90;;;;;;5089051;28;20507;-71
2021/09/29 10:48:41;;;;;;;4.53;1.30;;;26.30;98.40;;;;;;5087828;28;20056;-71
2021/09/29 11:08:35;;;;;;;4.68;1.10;;;25.10;99.90;;;;;;5080191;28;20142;-72
2021/09/29 11:11:27;;;;;;;2.90;1.10;;;24.60;99.00;;;;;;5088533;28;20182;-71
2021/09/29 11:28:12;;;;;;;5.10;1.20;;;18.90;99.90;;;;;;5086898;28;20511;-71
2021/09/29 11:30:47;;;;;;;6.93;1.25;;;18.50;99.90;;;;;;5088193;28;20357;-70
2021/09/29 11:33:27;;;;;;;6.90;1.50;;;18.60;99.90;;;;;;5087415;28;20112;-73
2021/09/29 11:39:04;;;;;;;11.75;1.65;;;18.30;99.90;;;;;;5084194;28;20057;-72
2021/09/29 12:09:08;;;;;;;5.82;1.00;;;18.60;99.90;;;;;;5086925;28;20054;-69
2021/09/29 12:11:45;;;;;;;3.15;1.25;;;18.60;99.90;;;;;;5085663;28;20062;-71
2021/09/29 12:14:17;;;;;;;6.75;1.13;;;18.80;99.90;;;;;;5086869;28;20048;-69
2021/09/29 12:16:45;;;;;;;8.15;1.27;;;18.80;99.90;;;;;;5085645;28;20053;-69
2021/09/29 12:19:21;;;;;;;4.25;1.05;;;18.80;99.90;;;;;;5085951;28;20052;-70
2021/09/29 12:21:48;;;;;;;3.35;1.10;;;19.00;99.90;;;;;;5083070;28;20443;-70
2021/09/29 12:24:27;;;;;;;8.20;1.60;;;20.50;99.90;;;;;;5085488;28;20066;-70
2021/09/29 12:26:58;;;;;;;3.60;1.00;;;20.30;99.90;;;;;;5085890;28;20063;-69
2021/09/29 12:29:34;;;;;;;3.65;1.10;;;20.30;99.90;;;;;;5085087;28;20129;-69
2021/09/29 12:32:17;;;;;;;3.22;1.02;;;19.60;99.90;;;;;;5087117;28;20139;-69
2021/09/29 12:35:01;;;;;;;3.38;1.05;;;19.50;99.90;;;;;;5086042;28;20055;-70
2021/09/29 12:37:28;;;;;;;6.80;1.42;;;19.20;99.90;;;;;;5085784;28;20138;-71
2021/09/29 12:39:56;;;;;;;7.40;1.30;;;19.60;99.90;;;;;;5086868;28;20043;-69
2021/09/29 12:42:31;;;;;;;4.28;1.33;;;20.00;99.90;;;;;;5087028;28;20083;-69
2021/09/29 12:44:58;;;;;;;4.22;1.10;;;20.20;99.90;;;;;;5085484;28;20079;-69
2021/09/29 12:47:36;;;;;;;4.00;0.93;;;20.30;99.90;;;;;;5085837;28;20051;-71
2021/09/29 12:50:10;;;;;;;7.32;1.25;;;21.40;99.90;;;;;;5086539;28;20093;-70
2021/09/29 12:52:39;;;;;;;8.32;1.55;;;21.60;99.90;;;;;;5084509;28;20047;-69
2021/09/29 12:55:07;;;;;;;4.57;1.65;;;20.90;99.90;;;;;;5085741;28;20105;-70
2021/09/29 12:57:35;;;;;;;4.22;0.98;;;20.50;99.90;;;;;;5083087;28;20711;-72
2021/09/29 13:00:03;;;;;;;12.82;1.40;;;19.90;99.90;;;;;;5084834;28;20047;-72
2021/09/29 13:02:30;;;;;;;6.78;1.27;;;19.60;99.90;;;;;;5085363;28;21185;-70
2021/09/29 13:04:57;;;;;;;3.83;1.30;;;20.00;99.90;;;;;;5085645;28;20500;-69
2021/09/29 13:07:24;;;;;;;6.97;1.20;;;20.50;99.90;;;;;;5086593;28;20070;-71
2021/09/29 13:09:52;;;;;;;3.00;1.10;;;21.10;99.90;;;;;;5087671;28;20043;-69
2021/09/29 13:12:19;;;;;;;5.53;0.90;;;21.50;99.90;;;;;;5086897;28;20055;-70
2021/09/29 13:14:48;;;;;;;5.43;1.27;;;22.60;99.90;;;;;;5088297;28;20044;-71
2021/09/29 13:17:15;;;;;;;4.57;1.00;;;21.50;99.90;;;;;;5087515;28;20039;-70
2021/09/29 13:19:47;;;;;;;7.63;0.90;;;20.30;99.90;;;;;;5086205;28;20062;-71
2021/09/29 13:22:18;;;;;;;5.22;1.33;;;20.80;99.90;;;;;;5086993;28;20522;-71
2021/09/29 13:25:20;;;;;;;5.95;1.27;;;20.90;99.90;;;;;;5089713;28;20467;-71
2021/09/29 13:38:41;;;;;;;3.85;0.63;;;19.50;99.90;;;;;;5069063;28;20155;-69
2021/09/29 13:41:08;;;;;;;2.35;0.70;;;19.90;99.90;;;;;;5084163;28;20151;-70
2021/09/29 13:43:35;;;;;;;7.40;0.85;;;19.50;99.90;;;;;;5086146;28;20047;-69
2021/09/29 13:46:04;;;;;;;3.47;0.90;;;19.30;99.90;;;;;;5087971;28;20047;-71
2021/09/29 13:48:31;;;;;;;5.43;0.80;;;19.10;99.90;;;;;;5089632;28;20176;-71
2021/09/29 13:51:00;;;;;;;3.65;1.27;;;19.00;99.90;;;;;;5089041;28;20530;-69
2021/09/29 13:53:28;;;;;;;5.82;1.00;;;18.70;99.90;;;;;;5090439;28;20102;-70
2021/09/29 13:55:57;;;;;;;3.55;0.80;;;18.80;99.90;;;;;;5088812;28;20999;-72
2021/09/29 13:58:33;;;;;;;3.95;0.80;;;18.70;99.90;;;;;;5088203;28;20514;-72
2021/09/29 14:01:18;;;;;;;4.07;1.13;;;18.70;99.90;;;;;;5088195;28;20056;-69
2021/09/29 14:15:01;;;;;;;3.95;1.00;;;17.80;99.90;;;;;;5085090;28;20054;-71
2021/09/29 14:28:36;;;;;;;6.03;1.30;;;18.40;99.90;;;;;;5087973;28;20449;-72
2021/09/29 14:31:08;;;;;;;3.90;1.33;;;17.80;99.90;;;;;;5088561;28;20062;-73
2021/09/29 14:33:39;;;;;;;3.22;0.80;;;16.50;99.90;;;;;;5088139;28;20058;-71
2021/09/29 14:36:07;;;;;;;6.38;1.10;;;16.50;99.90;;;;;;5087579;28;20087;-72
2021/09/29 14:38:34;;;;;;;5.97;1.13;;;16.40;99.90;;;;;;5089179;28;20051;-70
2021/09/29 14:41:01;;;;;;;2.35;0.75;;;16.50;99.90;;;;;;5086879;28;20047;-71
2021/09/29 14:43:28;;;;;;;5.70;0.80;;;16.40;99.90;;;;;;5086665;28;20071;-74
2021/09/29 14:45:55;;;;;;;4.45;1.05;;;16.30;99.90;;;;;;5087424;28;20055;-73
2021/09/29 14:48:23;;;;;;;4.32;1.20;;;16.20;99.90;;;;;;5088084;28;20504;-74
2021/09/29 14:50:50;;;;;;;5.90;1.40;;;16.40;99.90;;;;;;5087217;28;20111;-73
2021/09/29 14:53:19;;;;;;;6.03;1.55;;;16.60;99.90;;;;;;5088443;28;20059;-77
2021/09/29 14:55:46;;;;;;;5.32;1.85;;;16.90;99.90;;;;;;5085901;28;20047;-75
2021/09/29 14:58:14;;;;;;;4.85;1.30;;;17.00;99.90;;;;;;5085009;28;20048;-72
2021/09/29 15:00:41;;;;;;;5.80;1.50;;;17.10;99.90;;;;;;5086210;28;20469;-72